No particular awareness of the weather is required.    There are no Weather-warnings


Meteo18 Weather Cam more information Meteo18 Weather Cam


Thunder radar more information blitzortung!


Rain radar more information rain snow radar


Visit our other weather sites:

Template documentation
and downloads

And another site



Weather Underground History page Text

Daily Summary for November 27, 2017 Units:  English    Metric   Both
« Previous Day
Next Day »
Daily Weekly Monthly Yearly Custom
  High: Low: Average:
Temperature: 47.1 °F 33.3 °F 40.6 °F
Dew Point: 40.6 °F 31.8 °F 37 °F
Humidity: 97 % 76 % 88 %
Wind Speed: 13 mph 0 mph 4.6 mph
Wind Gust: 17 mph - -
Wind:- - SW
Pressure: 30.4 in 30.1 in -
Precipitation: 0 in    
Historical Graphs
 
 
Tabular Data for November 27, 2017
Time Temperature Dew Point Pressure Wind Wind Speed Wind Gust Humidity Rainfall Rate (Hourly)
00:02 34.3 °F 33.1 °F 30.4 in WSW 1 mph 3 mph 95 % 0 in
00:07 34.9 °F 33.8 °F 30.4 in WSW 1 mph 3 mph 96 % 0 in
00:12 35.1 °F 33.8 °F 30.4 in WSW 1 mph 3 mph 95 % 0 in
00:17 35.1 °F 33.8 °F 30.4 in WSW 1 mph 3 mph 95 % 0 in
00:22 35.1 °F 33.8 °F 30.4 in Calm   3 mph 95 % 0 in
00:27 34.9 °F 33.3 °F 30.4 in Calm   3 mph 94 % 0 in
00:37 33.6 °F 32 °F 30.4 in Calm   2 mph 94 % 0 in
00:42 33.6 °F 32 °F 30.4 in SSW 1 mph 3 mph 94 % 0 in
00:47 33.4 °F 31.8 °F 30.4 in Calm   3 mph 94 % 0 in
00:52 33.4 °F 32.2 °F 30.4 in Calm   3 mph 95 % 0 in
00:57 33.3 °F 32 °F 30.4 in SSW 1 mph 1 mph 95 % 0 in
01:02 33.3 °F 32 °F 30.4 in Calm   1 mph 95 % 0 in
01:12 33.3 °F 32 °F 30.4 in SSW 1 mph 2 mph 95 % 0 in
01:17 33.4 °F 32.2 °F 30.4 in Calm   1 mph 95 % 0 in
01:22 33.4 °F 32.2 °F 30.4 in SE 1 mph 1 mph 95 % 0 in
01:27 33.6 °F 32.5 °F 30.4 in Calm   2 mph 96 % 0 in
01:37 33.4 °F 32.2 °F 30.4 in SE 1 mph 3 mph 95 % 0 in
01:42 33.4 °F 32.2 °F 30.4 in SE 1 mph 3 mph 95 % 0 in
01:47 33.4 °F 32.4 °F 30.4 in Calm   2 mph 96 % 0 in
01:52 33.4 °F 32.2 °F 30.4 in Calm   2 mph 95 % 0 in
01:57 33.4 °F 32.2 °F 30.4 in Calm   2 mph 95 % 0 in
02:02 33.4 °F 32.4 °F 30.4 in Calm   2 mph 96 % 0 in
02:12 33.6 °F 32.5 °F 30.4 in Calm   1 mph 96 % 0 in
02:17 33.4 °F 32.2 °F 30.4 in SE 1 mph 1 mph 95 % 0 in
02:22 33.4 °F 32.4 °F 30.4 in SSE 1 mph 1 mph 96 % 0 in
02:32 33.4 °F 32.4 °F 30.4 in SE 1 mph 2 mph 96 % 0 in
02:42 33.6 °F 32.5 °F 30.4 in ESE 2 mph 2 mph 96 % 0 in
02:47 33.6 °F 32.5 °F 30.4 in SSE 1 mph 3 mph 96 % 0 in
02:52 33.6 °F 32.5 °F 30.4 in Calm   3 mph 96 % 0 in
02:57 33.6 °F 32.5 °F 30.4 in Calm   3 mph 96 % 0 in
03:02 33.8 °F 32.7 °F 30.4 in SSE 1 mph 3 mph 96 % 0 in
03:07 34 °F 32.9 °F 30.4 in SSE 1 mph 3 mph 96 % 0 in
03:12 34 °F 32.9 °F 30.4 in SSW 1 mph 3 mph 96 % 0 in
03:17 34.2 °F 33.1 °F 30.4 in South 1 mph 4 mph 96 % 0 in
03:32 34.3 °F 33.3 °F 30.4 in SW 2 mph 5 mph 96 % 0 in
03:37 34.3 °F 33.3 °F 30.4 in SW 2 mph 5 mph 96 % 0 in
03:42 34.5 °F 33.4 °F 30.4 in SW 1 mph 5 mph 96 % 0 in
03:47 34.5 °F 33.4 °F 30.4 in SSW 1 mph 3 mph 96 % 0 in
03:52 34.5 °F 33.4 °F 30.4 in SSW 1 mph 3 mph 96 % 0 in
03:57 34.5 °F 33.4 °F 30.4 in SSW 2 mph 3 mph 96 % 0 in
04:02 34.5 °F 33.4 °F 30.4 in SW 1 mph 3 mph 96 % 0 in
04:12 34.9 °F 34.2 °F 30.4 in WSW 1 mph 3 mph 97 % 0 in
04:22 34.9 °F 33.8 °F 30.4 in WSW 1 mph 4 mph 96 % 0 in
04:32 35.1 °F 34 °F 30.4 in Calm   4 mph 96 % 0 in
04:37 35.1 °F 34 °F 30.4 in SW 2 mph 2 mph 96 % 0 in
04:42 34.9 °F 33.8 °F 30.4 in Calm   2 mph 96 % 0 in
04:47 34.9 °F 33.8 °F 30.4 in SE 1 mph 3 mph 96 % 0 in
04:52 34.5 °F 33.4 °F 30.4 in SSE 1 mph 3 mph 96 % 0 in
04:57 34.3 °F 33.3 °F 30.4 in SE 1 mph 3 mph 96 % 0 in
05:07 34.3 °F 33.3 °F 30.4 in Calm   3 mph 96 % 0 in
05:12 34.3 °F 33.3 °F 30.4 in Calm   3 mph 96 % 0 in
05:17 34.3 °F 33.3 °F 30.4 in SSW 1 mph 2 mph 96 % 0 in
05:22 34.3 °F 33.3 °F 30.4 in SSW 1 mph 2 mph 96 % 0 in
05:32 34.7 °F 34 °F 30.4 in SSW 4 mph 4 mph 97 % 0 in
05:52 34.7 °F 33.6 °F 30.4 in SW 3 mph 6 mph 96 % 0 in
05:57 34.5 °F 33.4 °F 30.4 in SSW 2 mph 5 mph 96 % 0 in
06:02 34.5 °F 33.4 °F 30.4 in SW 3 mph 5 mph 96 % 0 in
06:12 34.5 °F 33.4 °F 30.4 in SW 3 mph 6 mph 96 % 0 in
06:17 34.7 °F 33.6 °F 30.4 in WSW 3 mph 6 mph 96 % 0 in
06:22 34.7 °F 33.6 °F 30.4 in SW 1 mph 6 mph 96 % 0 in
06:27 34.7 °F 33.6 °F 30.4 in SW 3 mph 6 mph 96 % 0 in
06:32 34.7 °F 33.6 °F 30.4 in SW 2 mph 6 mph 96 % 0 in
06:37 34.9 °F 33.8 °F 30.4 in SW 2 mph 5 mph 96 % 0 in
06:42 35.1 °F 34.3 °F 30.4 in SW 8 mph 8 mph 97 % 0 in
06:52 35.4 °F 34.7 °F 30.4 in SW 4 mph 8 mph 97 % 0 in
07:02 35.4 °F 34.3 °F 30.4 in SW 4 mph 8 mph 96 % 0 in
07:12 35.4 °F 34.3 °F 30.4 in SSW 1 mph 6 mph 96 % 0 in
07:22 35.4 °F 34.3 °F 30.4 in South 2 mph 5 mph 96 % 0 in
07:32 35.6 °F 34.5 °F 30.4 in Calm   3 mph 96 % 0 in
07:42 35.8 °F 34.7 °F 30.4 in Calm   3 mph 96 % 0 in
07:52 36 °F 34.9 °F 30.4 in Calm   3 mph 96 % 0 in
08:02 36.7 °F 36 °F 30.4 in SW 4 mph 4 mph 97 % 0 in
08:07 36.9 °F 35.8 °F 30.4 in SW 1 mph 5 mph 96 % 0 in
08:12 37 °F 36 °F 30.4 in SW 3 mph 5 mph 96 % 0 in
08:17 37.2 °F 36.1 °F 30.4 in SW 1 mph 5 mph 96 % 0 in
08:22 37.2 °F 36 °F 30.4 in WSW 5 mph 5 mph 95 % 0 in
08:27 37.4 °F 36.1 °F 30.4 in WSW 1 mph 6 mph 95 % 0 in
08:32 37.2 °F 35.6 °F 30.4 in West 3 mph 6 mph 94 % 0 in
08:42 37.2 °F 35.6 °F 30.4 in West 3 mph 7 mph 94 % 0 in
08:47 37.2 °F 35.6 °F 30.4 in WSW 3 mph 8 mph 94 % 0 in
08:52 37.2 °F 35.6 °F 30.4 in WSW 4 mph 8 mph 94 % 0 in
08:57 37.2 °F 35.4 °F 30.4 in WSW 5 mph 11 mph 93 % 0 in
09:02 37 °F 35.2 °F 30.4 in West 4 mph 11 mph 93 % 0 in
09:07 37.2 °F 35.4 °F 30.4 in WSW 5 mph 11 mph 93 % 0 in
09:12 37.2 °F 35.4 °F 30.4 in WSW 5 mph 11 mph 93 % 0 in
09:17 37.6 °F 35.8 °F 30.4 in SW 3 mph 9 mph 93 % 0 in
09:22 37.8 °F 36 °F 30.4 in WSW 4 mph 9 mph 93 % 0 in
09:32 37.9 °F 35.8 °F 30.4 in WSW 7 mph 11 mph 92 % 0 in
09:42 38.1 °F 36 °F 30.4 in SSW 3 mph 11 mph 92 % 0 in
09:47 38.5 °F 36.3 °F 30.4 in WSW 6 mph 11 mph 92 % 0 in
09:52 38.5 °F 36.1 °F 30.4 in West 4 mph 11 mph 91 % 0 in
10:02 38.8 °F 36.5 °F 30.4 in SSW 8 mph 11 mph 91 % 0 in
10:07 39 °F 36.3 °F 30.4 in SW 7 mph 12 mph 90 % 0 in
10:17 39.4 °F 36.7 °F 30.4 in SW 6 mph 12 mph 90 % 0 in
10:22 39.4 °F 36.5 °F 30.4 in WSW 5 mph 12 mph 89 % 0 in
10:27 39.4 °F 36.7 °F 30.4 in WSW 9 mph 13 mph 90 % 0 in
10:32 39.4 °F 36.5 °F 30.4 in SW 6 mph 13 mph 89 % 0 in
10:42 39.6 °F 36.5 °F 30.4 in SW 9 mph 14 mph 89 % 0 in
10:47 39.6 °F 36.5 °F 30.4 in SW 6 mph 15 mph 89 % 0 in
10:52 39.9 °F 37.2 °F 30.4 in South 5 mph 15 mph 90 % 0 in
11:02 40.5 °F 37.4 °F 30.4 in WSW 8 mph 12 mph 89 % 0 in
11:12 41.2 °F 37.9 °F 30.4 in SW 10 mph 11 mph 88 % 0 in
11:17 41.4 °F 37.8 °F 30.4 in SW 4 mph 11 mph 87 % 0 in
11:22 41.4 °F 37.8 °F 30.4 in WSW 7 mph 11 mph 87 % 0 in
11:32 41.9 °F 37.9 °F 30.4 in South 7 mph 13 mph 86 % 0 in
11:42 42.3 °F 38.3 °F 30.4 in SW 11 mph 15 mph 86 % 0 in
11:52 42.6 °F 38.5 °F 30.4 in SW 4 mph 15 mph 85 % 0 in
11:57 43 °F 38.5 °F 30.4 in SSW 4 mph 15 mph 84 % 0 in
12:02 43.3 °F 38.8 °F 30.4 in SW 5 mph 15 mph 84 % 0 in
12:07 43.5 °F 38.7 °F 30.4 in SSW 4 mph 14 mph 83 % 0 in
12:12 43.7 °F 38.5 °F 30.4 in West 4 mph 14 mph 82 % 0 in
12:17 43.9 °F 39.4 °F 30.4 in SW 5 mph 12 mph 84 % 0 in
12:22 43.9 °F 38.7 °F 30.4 in SW 9 mph 12 mph 82 % 0 in
12:32 44.1 °F 38.8 °F 30.4 in WSW 4 mph 13 mph 82 % 0 in
12:37 44.2 °F 39 °F 30.4 in WSW 2 mph 13 mph 82 % 0 in
12:42 44.2 °F 39.4 °F 30.4 in SW 3 mph 13 mph 83 % 0 in
12:47 44.4 °F 39.6 °F 30.4 in WSW 2 mph 12 mph 83 % 0 in
12:52 44.6 °F 39.4 °F 30.3 in SW 7 mph 12 mph 82 % 0 in
12:57 44.8 °F 39.6 °F 30.3 in West 9 mph 14 mph 82 % 0 in
13:02 45.1 °F 39.9 °F 30.3 in Calm   14 mph 82 % 0 in
13:12 45.3 °F 39.6 °F 30.3 in SW 11 mph 14 mph 80 % 0 in
13:17 45.3 °F 39.6 °F 30.3 in WSW 9 mph 15 mph 80 % 0 in
13:22 45.3 °F 39.9 °F 30.3 in WSW 9 mph 15 mph 81 % 0 in
13:27 45.5 °F 39.7 °F 30.3 in West 5 mph 15 mph 80 % 0 in
13:32 45.7 °F 39.9 °F 30.3 in SW 9 mph 15 mph 80 % 0 in
13:37 45.7 °F 39.9 °F 30.3 in West 10 mph 14 mph 80 % 0 in
13:42 45.9 °F 39.7 °F 30.3 in SW 9 mph 14 mph 79 % 0 in
13:47 46 °F 40.3 °F 30.3 in WSW 7 mph 15 mph 80 % 0 in
13:52 46.2 °F 39.7 °F 30.3 in WSW 11 mph 15 mph 78 % 0 in
13:57 46.4 °F 40.3 °F 30.3 in SSW 12 mph 15 mph 79 % 0 in
14:02 46.6 °F 40.1 °F 30.3 in West 7 mph 15 mph 78 % 0 in
14:07 46.8 °F 39.9 °F 30.3 in SW 8 mph 17 mph 77 % 0 in
14:12 46.9 °F 40.5 °F 30.3 in SW 7 mph 17 mph 78 % 0 in
14:17 47.1 °F 40.3 °F 30.3 in WSW 6 mph 17 mph 77 % 0 in
14:22 47.1 °F 39.9 °F 30.3 in WSW 13 mph 17 mph 76 % 0 in
14:32 46.9 °F 40.1 °F 30.3 in West 10 mph 14 mph 77 % 0 in
14:37 46.9 °F 40.1 °F 30.3 in West 8 mph 15 mph 77 % 0 in
14:42 46.8 °F 39.9 °F 30.3 in WSW 3 mph 15 mph 77 % 0 in
14:52 46.8 °F 39.9 °F 30.3 in WNW 5 mph 15 mph 77 % 0 in
15:02 46.6 °F 40.1 °F 30.3 in West 4 mph 17 mph 78 % 0 in
15:07 46.6 °F 40.1 °F 30.3 in WSW 11 mph 14 mph 78 % 0 in
15:12 46.6 °F 40.1 °F 30.3 in SW 9 mph 14 mph 78 % 0 in
15:22 46.4 °F 40.3 °F 30.3 in WSW 8 mph 15 mph 79 % 0 in
15:27 46.4 °F 40.3 °F 30.3 in SSW 6 mph 14 mph 79 % 0 in
15:32 46.4 °F 40.3 °F 30.3 in SW 7 mph 14 mph 79 % 0 in
15:37 46.4 °F 40.3 °F 30.3 in SW 5 mph 14 mph 79 % 0 in
15:47 46.2 °F 40.6 °F 30.3 in SSW 4 mph 11 mph 81 % 0 in
15:52 46.2 °F 40.5 °F 30.3 in SW 5 mph 11 mph 80 % 0 in
15:57 46.2 °F 40.5 °F 30.3 in SW 10 mph 12 mph 80 % 0 in
16:02 46.2 °F 40.5 °F 30.3 in SW 4 mph 12 mph 80 % 0 in
16:12 46 °F 40.5 °F 30.3 in SW 4 mph 11 mph 81 % 0 in
16:17 46 °F 40.3 °F 30.3 in SW 4 mph 10 mph 80 % 0 in
16:22 46 °F 40.5 °F 30.3 in SW 6 mph 10 mph 81 % 0 in
16:27 46 °F 40.5 °F 30.3 in SW 7 mph 12 mph 81 % 0 in
16:32 45.9 °F 40.3 °F 30.3 in WSW 6 mph 12 mph 81 % 0 in
16:37 46 °F 40.3 °F 30.3 in WSW 6 mph 12 mph 80 % 0 in
16:42 46 °F 40.3 °F 30.3 in WSW 5 mph 12 mph 80 % 0 in
16:47 46 °F 40.3 °F 30.3 in SW 7 mph 14 mph 80 % 0 in
16:52 45.9 °F 40.1 °F 30.3 in WSW 5 mph 14 mph 80 % 0 in
16:57 45.9 °F 40.1 °F 30.3 in SW 5 mph 14 mph 80 % 0 in
17:02 45.9 °F 40.1 °F 30.2 in SW 4 mph 14 mph 80 % 0 in
17:12 45.9 °F 40.1 °F 30.2 in SW 6 mph 12 mph 80 % 0 in
17:17 45.7 °F 39.9 °F 30.2 in SW 5 mph 11 mph 80 % 0 in
17:22 45.7 °F 40.1 °F 30.2 in SW 4 mph 11 mph 81 % 0 in
17:32 45.1 °F 39.9 °F 30.2 in SW 5 mph 9 mph 82 % 0 in
17:37 45.1 °F 40.3 °F 30.2 in SSW 4 mph 9 mph 83 % 0 in
17:42 45 °F 39.7 °F 30.2 in SSW 5 mph 9 mph 82 % 0 in
17:52 44.6 °F 40.1 °F 30.2 in SSW 5 mph 11 mph 84 % 0 in
17:57 44.4 °F 39.9 °F 30.2 in SW 4 mph 11 mph 84 % 0 in
18:02 44.2 °F 40.1 °F 30.2 in SSW 4 mph 11 mph 85 % 0 in
18:07 44.2 °F 39.7 °F 30.2 in SW 4 mph 9 mph 84 % 0 in
18:12 44.2 °F 39.7 °F 30.2 in SSW 3 mph 9 mph 84 % 0 in
18:17 44.4 °F 39.6 °F 30.2 in SW 5 mph 11 mph 83 % 0 in
18:27 44.4 °F 39.6 °F 30.2 in SW 12 mph 12 mph 83 % 0 in
18:32 44.4 °F 39.6 °F 30.2 in SW 9 mph 12 mph 83 % 0 in
18:37 44.4 °F 39.2 °F 30.2 in SSW 4 mph 12 mph 82 % 0 in
18:42 44.4 °F 39.2 °F 30.2 in SW 5 mph 12 mph 82 % 0 in
18:47 44.4 °F 39.6 °F 30.2 in SW 4 mph 12 mph 83 % 0 in
18:52 44.2 °F 39.7 °F 30.2 in SW 8 mph 12 mph 84 % 0 in
19:02 44.2 °F 39.4 °F 30.2 in SSW 4 mph 12 mph 83 % 0 in
19:12 44.4 °F 39.6 °F 30.2 in SSW 3 mph 11 mph 83 % 0 in
19:22 44.4 °F 39.2 °F 30.2 in SSW 7 mph 9 mph 82 % 0 in
19:27 44.4 °F 39.2 °F 30.2 in SSW 7 mph 12 mph 82 % 0 in
19:32 44.2 °F 39.4 °F 30.2 in South 7 mph 12 mph 83 % 0 in
19:37 44.1 °F 39.2 °F 30.2 in SSW 6 mph 11 mph 83 % 0 in
19:47 44.1 °F 39.2 °F 30.2 in SW 8 mph 12 mph 83 % 0 in
19:52 44.1 °F 39.2 °F 30.2 in SSW 6 mph 12 mph 83 % 0 in
19:57 44.1 °F 39.2 °F 30.2 in SSW 6 mph 13 mph 83 % 0 in
20:02 44.1 °F 39.2 °F 30.2 in South 5 mph 13 mph 83 % 0 in
20:07 43.9 °F 39.4 °F 30.2 in SW 5 mph 12 mph 84 % 0 in
20:12 43.9 °F 39.4 °F 30.2 in South 4 mph 12 mph 84 % 0 in
20:22 43.7 °F 39.2 °F 30.2 in SSW 5 mph 12 mph 84 % 0 in
20:32 43.9 °F 39.4 °F 30.2 in SW 9 mph 12 mph 84 % 0 in
20:37 44.1 °F 39.2 °F 30.2 in SW 7 mph 11 mph 83 % 0 in
20:42 44.2 °F 39.4 °F 30.2 in SW 6 mph 11 mph 83 % 0 in
20:47 44.1 °F 39.2 °F 30.2 in SW 6 mph 14 mph 83 % 0 in
20:57 44.1 °F 39.2 °F 30.2 in SW 9 mph 14 mph 83 % 0 in
21:02 44.1 °F 39.2 °F 30.2 in SSW 4 mph 14 mph 83 % 0 in
21:12 44.2 °F 39.4 °F 30.2 in SW 5 mph 12 mph 83 % 0 in
21:17 44.2 °F 39 °F 30.2 in SW 8 mph 12 mph 82 % 0 in
21:27 44.2 °F 39 °F 30.1 in SW 7 mph 13 mph 82 % 0 in
21:32 44.4 °F 39.2 °F 30.1 in SW 8 mph 13 mph 82 % 0 in
21:37 44.2 °F 39 °F 30.1 in SW 6 mph 15 mph 82 % 0 in
21:47 44.4 °F 39.2 °F 30.1 in West 6 mph 17 mph 82 % 0 in
21:52 44.4 °F 39.2 °F 30.1 in SW 11 mph 17 mph 82 % 0 in
22:02 44.4 °F 39.2 °F 30.1 in SW 6 mph 17 mph 82 % 0 in
22:12 44.2 °F 39.4 °F 30.1 in SW 9 mph 16 mph 83 % 0 in
22:17 44.2 °F 39 °F 30.1 in WSW 5 mph 14 mph 82 % 0 in
22:22 44.1 °F 39.2 °F 30.1 in SW 8 mph 14 mph 83 % 0 in
22:32 44.1 °F 39.2 °F 30.1 in SW 7 mph 14 mph 83 % 0 in
22:37 44.1 °F 39.2 °F 30.1 in West 7 mph 15 mph 83 % 0 in
22:42 43.9 °F 39 °F 30.1 in South 5 mph 15 mph 83 % 0 in
22:47 43.9 °F 39 °F 30.1 in SW 7 mph 14 mph 83 % 0 in
22:52 43.9 °F 39 °F 30.1 in WSW 6 mph 14 mph 83 % 0 in
22:57 43.9 °F 39 °F 30.1 in South 6 mph 13 mph 83 % 0 in
23:02 43.9 °F 39 °F 30.1 in SW 8 mph 13 mph 83 % 0 in
23:12 44.1 °F 39.2 °F 30.1 in SSW 8 mph 14 mph 83 % 0 in
23:17 44.1 °F 39.2 °F 30.1 in SW 5 mph 15 mph 83 % 0 in
23:22 44.1 °F 39.2 °F 30.1 in WSW 9 mph 15 mph 83 % 0 in
23:27 44.1 °F 38.8 °F 30.1 in SSW 9 mph 17 mph 82 % 0 in
23:32 44.1 °F 38.8 °F 30.1 in SW 11 mph 17 mph 82 % 0 in
23:37 44.1 °F 38.8 °F 30.1 in WSW 8 mph 16 mph 82 % 0 in
23:42 44.1 °F 38.8 °F 30.1 in SW 12 mph 16 mph 82 % 0 in
23:47 44.1 °F 38.8 °F 30.1 in SW 10 mph 16 mph 82 % 0 in
23:52 43.9 °F 38.7 °F 30.1 in SW 11 mph 16 mph 82 % 0 in
23:57 43.9 °F 38.7 °F 30.1 in SSW 6 mph 16 mph 82 % 0 in
Meteo18
Compliments of Weather Underground - 4 mb

Script developed by  Jim McMurry - jmcmurry@mwt.net Adapted for the template by  Wim van der Kuil - Leuven-Template.eu

You find our weather info also at:

European Weather Network

Weather Underground

Equipment we use:

Weather-station
Davis Vue

Weather-program
Meteohub

Weather-server
Raspberry PI 2 B+

Provider
1 and 1

Davis Vue

Meteohub

Raspberry PI 2 B+

1 and 1